createdAt,value
2023-05-04T00:00:26.330Z,9.80
2023-05-04T00:02:53.396Z,8.73
2023-05-04T00:05:20.521Z,8.83
2023-05-04T00:07:47.629Z,9.23
2023-05-04T00:10:14.589Z,10.40
2023-05-04T00:12:42.362Z,9.33
2023-05-04T00:15:09.571Z,9.50
2023-05-04T00:17:36.807Z,9.23
2023-05-04T00:20:04.614Z,9.17
2023-05-04T00:22:31.863Z,9.63
2023-05-04T00:24:58.822Z,9.43
2023-05-04T00:27:28.992Z,9.40
2023-05-04T00:29:56.369Z,9.30
2023-05-04T00:32:23.479Z,9.73
2023-05-04T00:34:50.944Z,9.70
2023-05-04T00:37:17.899Z,9.00
2023-05-04T00:39:44.842Z,9.20
2023-05-04T00:42:12.119Z,8.87
2023-05-04T00:44:41.465Z,9.77
2023-05-04T00:47:09.295Z,9.50
2023-05-04T00:49:36.594Z,9.77
2023-05-04T00:52:04.747Z,9.13
2023-05-04T00:54:32.950Z,9.53
2023-05-04T00:56:59.999Z,9.60
2023-05-04T00:59:28.007Z,10.20
2023-05-04T01:01:54.951Z,10.00
2023-05-04T01:04:22.145Z,9.07
2023-05-04T01:07:04.811Z,9.67
2023-05-04T01:09:57.741Z,10.60
2023-05-04T01:12:52.924Z,8.77
2023-05-04T01:15:21.474Z,9.73
2023-05-04T01:17:48.439Z,9.33
2023-05-04T01:20:15.563Z,9.60
2023-05-04T01:22:43.283Z,9.27
2023-05-04T01:25:11.548Z,9.17
2023-05-04T01:27:57.085Z,9.57
2023-05-04T01:30:41.199Z,8.90
2023-05-04T01:33:09.339Z,8.30
2023-05-04T01:35:37.203Z,8.90
2023-05-04T01:38:04.230Z,9.67
2023-05-04T01:40:31.291Z,9.63
2023-05-04T01:42:58.375Z,9.10
2023-05-04T01:45:25.397Z,10.00
2023-05-04T01:47:52.383Z,8.20
2023-05-04T01:50:19.427Z,9.30
2023-05-04T01:52:46.432Z,9.83
2023-05-04T01:55:13.433Z,10.10
2023-05-04T01:57:40.462Z,9.47
2023-05-04T02:00:08.378Z,9.73
2023-05-04T02:02:35.394Z,9.60
2023-05-04T02:05:02.441Z,9.13
2023-05-04T02:07:29.452Z,10.30
2023-05-04T02:09:58.324Z,9.43
2023-05-04T02:12:25.385Z,10.93
2023-05-04T02:14:55.002Z,9.53
2023-05-04T02:17:21.977Z,10.07
2023-05-04T02:19:48.948Z,10.37
2023-05-04T02:22:16.214Z,10.13
2023-05-04T02:24:44.377Z,9.90
2023-05-04T02:27:11.429Z,10.00
2023-05-04T02:29:38.913Z,10.90
2023-05-04T02:32:06.156Z,10.80
2023-05-04T02:34:35.261Z,9.83
2023-05-04T02:37:02.332Z,10.23
2023-05-04T02:39:32.224Z,9.77
2023-05-04T02:41:59.189Z,10.23
2023-05-04T02:44:26.197Z,9.50
2023-05-04T02:46:53.135Z,10.17
2023-05-04T02:49:20.117Z,10.63
2023-05-04T02:51:47.444Z,9.47
2023-05-04T02:54:14.421Z,10.20
2023-05-04T02:56:41.472Z,9.60
2023-05-04T02:59:08.531Z,9.57
2023-05-04T03:01:35.516Z,9.30
2023-05-04T03:04:03.008Z,8.90
2023-05-04T03:06:30.597Z,10.07
2023-05-04T03:08:58.655Z,10.67
2023-05-04T03:11:25.855Z,9.53
2023-05-04T03:13:52.927Z,9.97
2023-05-04T03:16:21.108Z,10.10
2023-05-04T03:21:35.632Z,9.00
2023-05-04T03:24:02.617Z,9.03
2023-05-04T03:26:29.519Z,9.07
2023-05-04T03:28:56.554Z,9.73
2023-05-04T03:31:23.549Z,8.57
2023-05-04T03:33:50.630Z,9.40
2023-05-04T03:36:17.666Z,9.20
2023-05-04T03:38:45.030Z,8.53
2023-05-04T03:41:12.000Z,9.50
2023-05-04T03:43:39.100Z,9.43
2023-05-04T03:46:06.188Z,10.03
2023-05-04T03:48:33.250Z,9.90
2023-05-04T03:51:00.461Z,9.40
2023-05-04T03:53:27.518Z,9.27
2023-05-04T03:55:54.512Z,9.30
2023-05-04T03:58:21.472Z,10.07
2023-05-04T04:00:48.692Z,9.17
2023-05-04T04:03:15.842Z,8.30
2023-05-04T04:05:42.932Z,9.63
2023-05-04T04:08:09.947Z,9.47
2023-05-04T04:10:37.170Z,9.53
2023-05-04T04:13:04.211Z,9.83
2023-05-04T04:15:31.386Z,9.57
2023-05-04T04:18:01.623Z,10.27
2023-05-04T04:20:28.652Z,10.27
2023-05-04T04:22:55.614Z,11.30
2023-05-04T04:25:23.285Z,11.03
2023-05-04T04:27:50.409Z,10.67
2023-05-04T04:30:21.807Z,10.83
2023-05-04T04:32:49.582Z,10.50
2023-05-04T04:35:16.761Z,11.20
2023-05-04T04:37:43.743Z,10.70
2023-05-04T04:40:11.539Z,9.97
2023-05-04T04:42:38.525Z,11.70
2023-05-04T04:45:06.519Z,11.50
2023-05-04T04:47:33.968Z,11.23
2023-05-04T04:50:01.029Z,11.00
2023-05-04T04:52:28.150Z,12.77
2023-05-04T04:54:55.193Z,11.53
2023-05-04T04:57:22.252Z,11.40
2023-05-04T04:59:49.467Z,11.60
2023-05-04T05:02:16.415Z,11.87
2023-05-04T05:04:43.454Z,11.03
2023-05-04T05:07:10.518Z,10.97
2023-05-04T05:09:38.434Z,11.90
2023-05-04T05:12:06.067Z,11.77
2023-05-04T05:14:33.333Z,11.43
2023-05-04T05:17:00.466Z,11.33
2023-05-04T05:19:27.900Z,11.47
2023-05-04T05:21:55.187Z,12.03
2023-05-04T05:24:22.191Z,11.87
2023-05-04T05:26:49.088Z,11.90
2023-05-04T05:29:16.048Z,12.03
2023-05-04T05:31:42.959Z,12.17
2023-05-04T05:34:09.875Z,12.37
2023-05-04T05:36:36.904Z,12.07
2023-05-04T05:39:04.345Z,12.23
2023-05-04T05:41:31.320Z,12.67
2023-05-04T05:43:58.770Z,11.80
2023-05-04T05:46:26.022Z,12.27
2023-05-04T05:48:52.973Z,11.70
2023-05-04T05:51:20.260Z,12.17
2023-05-04T05:53:47.208Z,11.77
2023-05-04T05:56:14.899Z,12.10
2023-05-04T05:58:42.247Z,12.43
2023-05-04T06:01:09.317Z,11.53
2023-05-04T06:03:36.535Z,11.90
2023-05-04T06:06:03.668Z,11.63
2023-05-04T06:08:31.195Z,11.63
2023-05-04T06:10:58.140Z,11.43
2023-05-04T06:13:26.942Z,12.27
2023-05-04T06:15:54.857Z,12.33
2023-05-04T06:18:22.895Z,11.30
2023-05-04T06:20:49.884Z,11.83
2023-05-04T06:23:30.670Z,11.93
2023-05-04T06:25:57.817Z,11.30
2023-05-04T06:28:24.811Z,11.57
2023-05-04T06:30:52.106Z,11.50
2023-05-04T06:33:19.379Z,11.10
2023-05-04T06:35:46.337Z,11.33
2023-05-04T06:38:13.265Z,10.80
2023-05-04T06:40:41.104Z,11.43
2023-05-04T06:43:08.101Z,10.63
2023-05-04T06:45:39.413Z,10.87
2023-05-04T06:48:09.350Z,10.17
2023-05-04T06:50:42.472Z,10.17
2023-05-04T06:53:23.905Z,10.07
2023-05-04T06:55:51.514Z,9.13
2023-05-04T06:58:20.006Z,10.15
2023-05-04T07:00:47.101Z,9.55
2023-05-04T07:03:14.177Z,8.93
2023-05-04T07:05:41.144Z,8.50
2023-05-04T07:08:09.809Z,8.60
2023-05-04T07:10:36.761Z,8.90
2023-05-04T07:13:03.865Z,9.05
2023-05-04T07:15:30.990Z,8.90
2023-05-04T07:17:57.951Z,8.52
2023-05-04T07:20:26.394Z,8.07
2023-05-04T07:22:57.766Z,8.07
2023-05-04T07:25:26.205Z,8.43
2023-05-04T07:27:54.012Z,8.35
2023-05-04T07:30:22.139Z,7.65
2023-05-04T07:32:49.138Z,8.68
2023-05-04T07:35:16.347Z,8.32
2023-05-04T07:37:44.713Z,7.85
2023-05-04T07:40:14.658Z,8.20
2023-05-04T07:42:42.157Z,7.93
2023-05-04T07:45:10.299Z,7.60
2023-05-04T07:47:37.479Z,7.60
2023-05-04T07:50:05.361Z,7.50
2023-05-04T07:52:33.261Z,7.65
2023-05-04T07:55:00.350Z,7.68
2023-05-04T07:57:27.438Z,7.25
2023-05-04T07:59:55.975Z,7.25
2023-05-04T08:02:23.337Z,6.68
2023-05-04T08:04:50.533Z,6.80
2023-05-04T08:07:17.644Z,7.70
2023-05-04T08:09:44.767Z,6.90
2023-05-04T08:12:12.367Z,7.63
2023-05-04T08:14:40.610Z,7.22
2023-05-04T08:17:07.738Z,7.07
2023-05-04T08:19:34.943Z,7.22
2023-05-04T08:22:02.532Z,7.38
2023-05-04T08:24:30.636Z,6.70
2023-05-04T08:27:07.013Z,7.50
2023-05-04T08:29:36.318Z,7.32
2023-05-04T08:32:03.488Z,6.93
2023-05-04T08:34:30.542Z,6.50
2023-05-04T08:36:58.368Z,5.90
2023-05-04T08:39:25.369Z,7.20
2023-05-04T08:41:52.472Z,7.07
2023-05-04T08:44:19.567Z,7.15
2023-05-04T08:46:54.174Z,7.80
2023-05-04T08:49:22.864Z,7.78
2023-05-04T08:51:51.233Z,7.53
2023-05-04T08:54:19.079Z,7.60
2023-05-04T08:56:49.592Z,7.60
2023-05-04T08:59:22.141Z,7.55
2023-05-04T09:01:59.705Z,7.22
2023-05-04T09:04:29.187Z,6.80
2023-05-04T09:06:57.890Z,7.40
2023-05-04T09:09:29.179Z,7.05
2023-05-04T09:11:56.289Z,8.02
2023-05-04T09:14:32.335Z,7.43
2023-05-04T09:17:00.702Z,7.32
2023-05-04T09:19:33.488Z,8.05
2023-05-04T09:22:17.681Z,8.10
2023-05-04T09:24:46.472Z,6.85
2023-05-04T09:27:18.573Z,7.72
2023-05-04T09:29:54.402Z,7.38
2023-05-04T09:32:21.445Z,6.75
2023-05-04T09:34:53.126Z,6.85
2023-05-04T09:37:21.357Z,7.15
2023-05-04T09:39:55.192Z,7.20
2023-05-04T09:42:24.023Z,7.07
2023-05-04T09:45:03.584Z,7.15
2023-05-04T09:47:38.720Z,6.68
2023-05-04T09:50:22.452Z,7.25
2023-05-04T09:52:50.658Z,6.40
2023-05-04T09:55:19.820Z,6.30
2023-05-04T09:57:49.140Z,6.30
2023-05-04T10:00:18.278Z,6.70
2023-05-04T10:02:47.283Z,6.63
2023-05-04T10:05:17.708Z,6.63
2023-05-04T10:07:45.917Z,6.00
2023-05-04T10:10:14.521Z,6.40
2023-05-04T10:12:41.582Z,6.72
2023-05-04T10:15:10.985Z,6.93
2023-05-04T10:18:25.719Z,6.65
2023-05-04T10:21:01.469Z,6.43
2023-05-04T10:24:01.939Z,6.88
2023-05-04T10:27:06.440Z,6.50
2023-05-04T10:29:34.223Z,6.68
2023-05-04T10:32:01.753Z,6.75
2023-05-04T10:34:34.096Z,6.88
2023-05-04T10:37:04.163Z,6.07
2023-05-04T10:39:34.115Z,6.93
2023-05-04T10:42:05.683Z,6.65
2023-05-04T10:44:55.046Z,6.75
2023-05-04T10:47:32.597Z,5.90
2023-05-04T10:50:08.885Z,6.10
2023-05-04T10:52:54.068Z,5.82
2023-05-04T10:55:22.318Z,6.15
2023-05-04T10:57:57.233Z,6.07
2023-05-04T11:00:36.682Z,6.57
2023-05-04T11:03:04.558Z,6.38
2023-05-04T11:05:47.072Z,5.53
2023-05-04T11:08:22.309Z,5.45
2023-05-04T11:11:10.089Z,6.22
2023-05-04T11:13:47.347Z,5.80
2023-05-04T11:16:23.282Z,6.75
2023-05-04T11:18:50.390Z,5.95
2023-05-04T11:21:26.214Z,5.95
2023-05-04T11:24:00.198Z,5.72
2023-05-04T11:26:28.783Z,5.80
2023-05-04T11:28:55.868Z,5.57
2023-05-04T11:31:22.851Z,5.20
2023-05-04T11:33:54.836Z,5.57
2023-05-04T11:36:23.033Z,6.00
2023-05-04T11:38:50.952Z,4.72
2023-05-04T11:41:17.977Z,5.25
2023-05-04T11:43:46.559Z,4.80
2023-05-04T11:46:14.467Z,5.00
2023-05-04T11:48:41.665Z,5.40
2023-05-04T11:51:08.694Z,4.82
2023-05-04T11:53:40.706Z,4.30
2023-05-04T11:56:09.769Z,4.57
2023-05-04T11:58:37.528Z,4.93
2023-05-04T12:01:04.730Z,4.57
2023-05-04T12:03:53.293Z,4.97
2023-05-04T12:06:33.234Z,4.88
2023-05-04T12:09:06.046Z,4.93
2023-05-04T12:11:34.402Z,4.85
2023-05-04T12:14:15.126Z,4.43
2023-05-04T12:16:43.190Z,4.05
2023-05-04T12:19:13.150Z,4.47
2023-05-04T12:22:09.937Z,4.93
2023-05-04T12:24:36.981Z,4.25
2023-05-04T12:27:04.974Z,4.88
2023-05-04T12:29:32.012Z,4.43
2023-05-04T12:31:59.027Z,4.90
2023-05-04T12:34:26.000Z,5.70
2023-05-04T12:36:53.137Z,4.45
2023-05-04T12:39:20.899Z,4.22
2023-05-04T12:41:47.839Z,4.32
2023-05-04T12:44:14.864Z,4.32
2023-05-04T12:46:42.720Z,3.90
2023-05-04T12:49:11.101Z,3.95
2023-05-04T12:51:38.150Z,4.45
2023-05-04T12:54:05.269Z,4.28
2023-05-04T12:56:33.795Z,4.85
2023-05-04T12:59:00.906Z,4.13
2023-05-04T13:01:27.904Z,5.07
2023-05-04T13:03:54.927Z,4.53
2023-05-04T13:06:21.911Z,4.22
2023-05-04T13:08:48.865Z,3.95
2023-05-04T13:11:20.068Z,4.43
2023-05-04T13:13:47.153Z,4.32
2023-05-04T13:16:14.293Z,4.38
2023-05-04T13:18:41.277Z,4.13
2023-05-04T13:21:08.360Z,4.05
2023-05-04T13:23:35.399Z,4.00
2023-05-04T13:26:02.355Z,3.80
2023-05-04T13:28:29.392Z,3.60
2023-05-04T13:30:56.465Z,3.42
2023-05-04T13:33:29.375Z,3.70
2023-05-04T13:35:58.461Z,3.25
2023-05-04T13:38:25.985Z,3.58
2023-05-04T13:40:52.901Z,3.05
2023-05-04T13:43:20.708Z,2.85
2023-05-04T13:45:48.393Z,2.95
2023-05-04T13:48:15.388Z,3.05
2023-05-04T13:50:42.718Z,3.30
2023-05-04T13:53:12.745Z,2.85
2023-05-04T13:55:39.689Z,3.00
2023-05-04T13:58:06.822Z,2.60
2023-05-04T14:00:33.769Z,2.88
2023-05-04T14:03:00.936Z,2.45
2023-05-04T14:05:27.977Z,2.33
2023-05-04T14:07:54.932Z,2.70
2023-05-04T14:10:22.050Z,2.70
2023-05-04T14:12:49.108Z,2.78
2023-05-04T14:15:16.819Z,2.45
2023-05-04T14:17:43.896Z,2.50
2023-05-04T14:20:11.373Z,2.30
2023-05-04T14:22:41.165Z,2.65
2023-05-04T14:25:09.105Z,2.85
2023-05-04T14:27:36.605Z,2.50
2023-05-04T14:30:04.628Z,3.30
2023-05-04T14:32:31.634Z,2.53
2023-05-04T14:35:07.995Z,2.60
2023-05-04T14:37:37.625Z,2.42
2023-05-04T14:40:10.623Z,2.50
2023-05-04T14:42:38.570Z,2.58
2023-05-04T14:45:07.853Z,2.70
2023-05-04T14:47:36.884Z,2.13
2023-05-04T14:50:05.327Z,2.30
2023-05-04T14:52:32.498Z,2.88
2023-05-04T14:54:59.484Z,2.28
2023-05-04T14:57:26.542Z,2.97
2023-05-04T14:59:53.473Z,2.25
2023-05-04T15:02:20.992Z,2.30
2023-05-04T15:04:48.270Z,2.40
2023-05-04T15:07:16.584Z,2.40
2023-05-04T15:09:43.659Z,2.75
2023-05-04T15:12:10.768Z,2.50
2023-05-04T15:14:37.830Z,2.58
2023-05-04T15:17:05.399Z,2.70
2023-05-04T15:19:32.380Z,2.47
2023-05-04T15:21:59.312Z,2.30
2023-05-04T15:24:26.504Z,2.60
2023-05-04T15:26:53.558Z,2.38
2023-05-04T15:29:20.502Z,2.50
2023-05-04T15:31:47.606Z,2.58
2023-05-04T15:34:16.876Z,2.08
2023-05-04T15:36:45.137Z,2.28
2023-05-04T15:39:12.423Z,2.58
2023-05-04T15:41:39.835Z,2.20
2023-05-04T15:44:06.920Z,2.45
2023-05-04T15:46:35.112Z,2.70
2023-05-04T15:49:02.110Z,2.63
2023-05-04T15:51:30.753Z,2.40
2023-05-04T15:53:58.574Z,2.22
2023-05-04T15:56:25.498Z,2.50
2023-05-04T15:58:52.688Z,2.47
2023-05-04T16:01:19.910Z,2.72
2023-05-04T16:03:47.184Z,2.67
2023-05-04T16:06:15.607Z,2.60
2023-05-04T16:08:42.606Z,2.92
2023-05-04T16:11:09.629Z,2.80
2023-05-04T16:13:36.833Z,3.10
2023-05-04T16:16:05.005Z,3.03
2023-05-04T16:18:32.160Z,3.45
2023-05-04T16:20:59.100Z,3.33
2023-05-04T16:23:28.122Z,3.13
2023-05-04T16:25:55.104Z,3.65
2023-05-04T16:28:22.172Z,3.70
2023-05-04T16:30:50.143Z,3.42
2023-05-04T16:33:17.373Z,3.45
2023-05-04T16:35:44.329Z,3.35
2023-05-04T16:38:15.673Z,3.80
2023-05-04T16:40:43.016Z,3.53
2023-05-04T16:43:10.590Z,4.07
2023-05-04T16:45:38.262Z,3.50
2023-05-04T16:48:06.333Z,3.63
2023-05-04T16:50:33.679Z,3.70
2023-05-04T16:53:00.652Z,3.35
2023-05-04T16:55:27.788Z,3.58
2023-05-04T16:57:58.349Z,3.72
2023-05-04T17:00:25.969Z,3.60
2023-05-04T17:02:53.397Z,3.60
2023-05-04T17:05:21.057Z,3.92
2023-05-04T17:07:48.043Z,3.67
2023-05-04T17:10:15.136Z,3.67
2023-05-04T17:12:42.650Z,3.80
2023-05-04T17:15:10.952Z,3.70
2023-05-04T17:17:38.143Z,3.60
2023-05-04T17:20:06.758Z,3.80
2023-05-04T17:22:34.481Z,3.53
2023-05-04T17:25:01.428Z,3.42
2023-05-04T17:27:28.382Z,4.10
2023-05-04T17:29:55.348Z,3.55
2023-05-04T17:32:22.343Z,3.67
2023-05-04T17:34:49.324Z,3.80
2023-05-04T17:37:16.291Z,3.92
2023-05-04T17:39:43.298Z,4.05
2023-05-04T17:42:12.215Z,4.03
2023-05-04T17:44:39.400Z,4.00
2023-05-04T17:47:06.422Z,4.32
2023-05-04T17:49:33.496Z,4.07
2023-05-04T17:52:01.493Z,4.85
2023-05-04T17:54:28.767Z,4.00
2023-05-04T17:56:55.823Z,4.03
2023-05-04T17:59:22.831Z,4.43
2023-05-04T18:01:49.877Z,4.88
2023-05-04T18:04:16.871Z,4.30
2023-05-04T18:06:43.853Z,4.20
2023-05-04T18:09:11.618Z,4.38
2023-05-04T18:11:38.567Z,4.13
2023-05-04T18:14:05.529Z,4.68
2023-05-04T18:16:36.216Z,4.28
2023-05-04T18:19:03.248Z,4.50
2023-05-04T18:21:30.214Z,4.40
2023-05-04T18:23:57.257Z,4.82
2023-05-04T18:26:24.337Z,4.60
2023-05-04T18:28:51.349Z,4.05
2023-05-04T18:31:19.005Z,4.50
2023-05-04T18:33:46.014Z,4.28
2023-05-04T18:36:13.226Z,4.57
2023-05-04T18:38:40.986Z,6.78
2023-05-04T18:41:08.044Z,8.10
2023-05-04T18:43:35.051Z,6.63
2023-05-04T18:46:08.292Z,5.47
2023-05-04T18:48:35.437Z,6.53
2023-05-04T18:51:02.852Z,6.30
2023-05-04T18:53:30.117Z,6.03
2023-05-04T18:56:04.508Z,5.82
2023-05-04T18:58:32.319Z,6.65
2023-05-04T19:00:59.624Z,6.50
2023-05-04T19:03:27.419Z,7.03
2023-05-04T19:05:55.005Z,7.30
2023-05-04T19:08:22.112Z,7.05
2023-05-04T19:10:49.882Z,7.22
2023-05-04T19:13:17.747Z,6.95
2023-05-04T19:15:45.230Z,7.13
2023-05-04T19:18:12.304Z,7.28
2023-05-04T19:20:39.947Z,7.95
2023-05-04T19:23:06.956Z,8.80
2023-05-04T19:25:35.088Z,8.32
2023-05-04T19:28:08.606Z,8.65
2023-05-04T19:30:37.502Z,8.98
2023-05-04T19:33:05.830Z,9.93
2023-05-04T19:35:33.056Z,10.45
2023-05-04T19:38:01.918Z,10.82
2023-05-04T19:40:28.966Z,8.93
2023-05-04T19:42:55.936Z,8.52
2023-05-04T19:45:22.919Z,10.07
2023-05-04T19:47:50.767Z,10.20
2023-05-04T19:50:18.045Z,10.45
2023-05-04T19:52:45.170Z,10.82
2023-05-04T19:55:12.623Z,10.27
2023-05-04T19:57:39.771Z,12.20
2023-05-04T20:00:09.869Z,10.20
2023-05-04T20:02:38.221Z,11.43
2023-05-04T20:05:06.268Z,11.45
2023-05-04T20:07:33.276Z,11.30
2023-05-04T20:10:00.394Z,12.35
2023-05-04T20:12:27.408Z,13.18
2023-05-04T20:14:54.365Z,12.30
2023-05-04T20:17:21.453Z,12.48
2023-05-04T20:19:48.605Z,12.48
2023-05-04T20:22:16.425Z,11.68
2023-05-04T20:24:43.463Z,13.45
2023-05-04T20:27:10.578Z,13.32
2023-05-04T20:29:37.552Z,13.57
2023-05-04T20:32:05.624Z,12.45
2023-05-04T20:34:33.404Z,12.00
2023-05-04T20:37:00.574Z,12.05
2023-05-04T20:39:28.076Z,12.20
2023-05-04T20:41:55.074Z,11.52
2023-05-04T20:44:22.369Z,11.30
2023-05-04T20:46:49.393Z,11.63
2023-05-04T20:49:16.527Z,12.15
2023-05-04T20:51:43.560Z,11.93
2023-05-04T20:54:10.569Z,12.00
2023-05-04T20:56:37.592Z,11.60
2023-05-04T20:59:04.518Z,11.90
2023-05-04T21:01:31.529Z,12.38
2023-05-04T21:03:58.775Z,13.15
2023-05-04T21:06:25.884Z,13.05
2023-05-04T21:08:52.832Z,12.82
2023-05-04T21:11:19.771Z,12.98
2023-05-04T21:13:46.766Z,12.43
2023-05-04T21:16:13.923Z,12.85
2023-05-04T21:18:41.005Z,13.05
2023-05-04T21:21:08.069Z,13.02
2023-05-04T21:23:34.991Z,12.68
2023-05-04T21:26:05.223Z,14.82
2023-05-04T21:28:32.699Z,15.48
2023-05-04T21:30:59.886Z,11.40
2023-05-04T21:33:26.868Z,5.80
2023-05-04T21:35:53.949Z,2.90
2023-05-04T21:38:22.000Z,4.22
2023-05-04T21:40:49.441Z,5.10
2023-05-04T21:43:16.459Z,4.22
2023-05-04T21:45:43.428Z,4.07
2023-05-04T21:48:10.499Z,3.95
2023-05-04T21:50:37.588Z,4.25
2023-05-04T21:53:04.569Z,5.80
2023-05-04T21:55:31.594Z,5.15
2023-05-04T21:57:58.608Z,5.40
2023-05-04T22:00:25.923Z,6.65
2023-05-04T22:02:55.836Z,6.50
2023-05-04T22:05:23.172Z,6.82
2023-05-04T22:07:50.469Z,6.40
2023-05-04T22:10:18.127Z,7.00
2023-05-04T22:12:45.157Z,8.60
2023-05-04T22:15:12.274Z,9.15
2023-05-04T22:17:39.361Z,9.45
2023-05-04T22:20:07.964Z,9.45
2023-05-04T22:22:35.763Z,9.82
2023-05-04T22:25:02.738Z,8.85
2023-05-04T22:27:30.080Z,8.55
2023-05-04T22:29:57.273Z,8.18
2023-05-04T22:32:24.266Z,9.00
2023-05-04T22:34:51.293Z,7.88
2023-05-04T22:37:18.236Z,8.10
2023-05-04T22:39:45.184Z,7.95
2023-05-04T22:42:12.440Z,7.25
2023-05-04T22:44:39.599Z,7.03
2023-05-04T22:47:06.589Z,7.40
2023-05-04T22:49:33.569Z,6.80
2023-05-04T22:52:00.852Z,8.18
2023-05-04T22:54:27.936Z,7.65
2023-05-04T22:56:54.914Z,7.63
2023-05-04T22:59:21.919Z,8.15
2023-05-04T23:01:50.151Z,8.43
2023-05-04T23:04:17.206Z,7.30
2023-05-04T23:06:44.254Z,6.97
2023-05-04T23:09:11.808Z,6.72
2023-05-04T23:11:38.896Z,6.38
2023-05-04T23:14:06.140Z,6.60
2023-05-04T23:16:33.390Z,7.22
2023-05-04T23:19:00.419Z,7.68
2023-05-04T23:21:27.432Z,6.78
2023-05-04T23:23:54.363Z,6.80
2023-05-04T23:26:21.435Z,6.90
2023-05-04T23:28:48.605Z,6.68
2023-05-04T23:31:15.785Z,6.53
2023-05-04T23:33:43.498Z,7.90
2023-05-04T23:36:10.493Z,7.38
2023-05-04T23:38:37.453Z,7.40
2023-05-04T23:41:04.889Z,7.90
2023-05-04T23:43:32.114Z,6.97
2023-05-04T23:46:04.207Z,7.30
2023-05-04T23:48:32.601Z,7.57
2023-05-04T23:51:05.787Z,6.72
2023-05-04T23:53:37.055Z,6.30
2023-05-04T23:56:06.281Z,6.68
2023-05-04T23:58:34.568Z,6.38
